createdAt,value
2023-02-23T00:02:07.874Z,20.67
2023-02-23T00:04:35.847Z,20.69
2023-02-23T00:07:03.216Z,20.72
2023-02-23T00:09:35.850Z,20.75
2023-02-23T00:12:08.527Z,20.76
2023-02-23T00:14:38.701Z,20.78
2023-02-23T00:17:11.175Z,20.78
2023-02-23T00:19:38.125Z,20.80
2023-02-23T00:22:05.142Z,20.82
2023-02-23T00:24:32.181Z,20.82
2023-02-23T00:26:59.122Z,20.84
2023-02-23T00:29:26.110Z,20.84
2023-02-23T00:31:53.408Z,20.87
2023-02-23T00:34:22.271Z,20.88
2023-02-23T00:36:51.840Z,20.88
2023-02-23T00:39:21.919Z,20.88
2023-02-23T00:41:49.900Z,20.84
2023-02-23T00:44:17.177Z,20.85
2023-02-23T00:46:44.939Z,20.83
2023-02-23T00:49:12.990Z,20.83
2023-02-23T00:51:40.139Z,20.80
2023-02-23T00:54:07.773Z,20.77
2023-02-23T00:56:35.097Z,20.76
2023-02-23T00:59:02.088Z,20.74
2023-02-23T01:01:29.586Z,20.73
2023-02-23T01:03:56.562Z,20.74
2023-02-23T01:06:23.743Z,20.72
2023-02-23T01:08:51.336Z,20.69
2023-02-23T01:11:21.642Z,20.69
2023-02-23T01:13:49.586Z,20.68
2023-02-23T01:16:18.044Z,20.67
2023-02-23T01:18:45.728Z,20.67
2023-02-23T01:21:15.897Z,20.68
2023-02-23T01:23:43.159Z,20.68
2023-02-23T01:26:13.575Z,20.67
2023-02-23T01:28:40.488Z,20.62
2023-02-23T01:31:09.395Z,20.63
2023-02-23T01:33:36.483Z,20.64
2023-02-23T01:36:03.496Z,20.64
2023-02-23T01:38:30.504Z,20.58
2023-02-23T01:40:57.417Z,20.57
2023-02-23T01:43:27.974Z,20.55
2023-02-23T01:45:56.327Z,20.50
2023-02-23T01:48:24.612Z,20.47
2023-02-23T01:50:55.018Z,20.41
2023-02-23T01:53:23.016Z,20.41
2023-02-23T01:55:51.374Z,20.39
2023-02-23T01:58:20.188Z,20.37
2023-02-23T02:00:50.129Z,20.36
2023-02-23T02:03:25.351Z,20.32
2023-02-23T02:05:52.869Z,20.30
2023-02-23T02:08:19.867Z,20.29
2023-02-23T02:10:47.810Z,20.26
2023-02-23T02:13:18.640Z,20.23
2023-02-23T02:15:54.099Z,20.23
2023-02-23T02:18:23.852Z,20.21
2023-02-23T02:21:04.924Z,20.20
2023-02-23T02:23:37.240Z,20.17
2023-02-23T02:26:10.193Z,20.16
2023-02-23T02:28:38.860Z,20.16
2023-02-23T02:31:08.962Z,20.14
2023-02-23T02:33:38.176Z,20.13
2023-02-23T02:36:08.386Z,20.10
2023-02-23T02:38:35.668Z,20.09
2023-02-23T02:41:09.397Z,20.05
2023-02-23T02:43:43.491Z,20.04
2023-02-23T02:46:13.531Z,20.03
2023-02-23T02:48:42.503Z,20.01
2023-02-23T02:51:18.985Z,20.02
2023-02-23T02:53:51.794Z,19.97
2023-02-23T02:56:20.241Z,19.95
2023-02-23T02:58:50.334Z,19.94
2023-02-23T03:01:21.506Z,19.91
2023-02-23T03:03:51.991Z,19.92
2023-02-23T03:06:23.712Z,19.90
2023-02-23T03:08:58.501Z,19.89
2023-02-23T03:11:31.363Z,19.88
2023-02-23T03:14:04.498Z,19.88
2023-02-23T03:16:35.817Z,19.85
2023-02-23T03:19:09.048Z,19.82
2023-02-23T03:21:46.551Z,19.81
2023-02-23T03:24:22.715Z,19.80
2023-02-23T03:26:59.667Z,19.78
2023-02-23T03:29:30.915Z,19.78
2023-02-23T03:32:02.392Z,19.75
2023-02-23T03:34:37.217Z,19.74
2023-02-23T03:37:12.474Z,19.70
2023-02-23T03:39:45.459Z,19.72
2023-02-23T03:42:19.320Z,19.69
2023-02-23T03:44:51.821Z,19.68
2023-02-23T03:47:24.181Z,19.67
2023-02-23T03:49:54.482Z,19.66
2023-02-23T03:52:28.244Z,19.64
2023-02-23T03:55:01.672Z,19.63
2023-02-23T03:57:34.851Z,19.60
2023-02-23T04:00:06.793Z,19.59
2023-02-23T04:02:38.756Z,19.60
2023-02-23T04:05:11.490Z,19.57
2023-02-23T04:07:44.066Z,19.56
2023-02-23T04:10:14.860Z,19.54
2023-02-23T04:12:47.781Z,19.53
2023-02-23T04:15:15.136Z,19.50
2023-02-23T04:17:42.904Z,19.49
2023-02-23T04:20:11.880Z,19.48
2023-02-23T04:22:39.041Z,19.46
2023-02-23T04:25:06.583Z,19.45
2023-02-23T04:27:33.424Z,19.44
2023-02-23T04:30:00.252Z,19.44
2023-02-23T04:32:27.282Z,19.44
2023-02-23T04:34:54.287Z,19.42
2023-02-23T04:37:21.145Z,19.41
2023-02-23T04:39:50.187Z,19.40
2023-02-23T04:42:18.023Z,19.38
2023-02-23T04:44:45.435Z,19.36
2023-02-23T04:47:12.478Z,19.36
2023-02-23T04:49:39.355Z,19.35
2023-02-23T04:52:06.311Z,19.33
2023-02-23T04:54:33.146Z,19.31
2023-02-23T04:56:59.984Z,19.29
2023-02-23T04:59:27.256Z,19.28
2023-02-23T05:01:54.074Z,19.29
2023-02-23T05:04:20.939Z,19.26
2023-02-23T05:06:48.210Z,19.25
2023-02-23T05:09:15.209Z,19.23
2023-02-23T05:11:42.116Z,19.24
2023-02-23T05:14:10.062Z,19.24
2023-02-23T05:16:36.933Z,19.21
2023-02-23T05:19:03.763Z,19.19
2023-02-23T05:21:30.596Z,19.17
2023-02-23T05:23:58.117Z,19.18
2023-02-23T05:26:25.129Z,19.16
2023-02-23T05:28:52.042Z,19.16
2023-02-23T05:31:19.431Z,19.15
2023-02-23T05:33:46.704Z,19.14
2023-02-23T05:36:14.373Z,19.12
2023-02-23T05:38:41.270Z,19.11
2023-02-23T05:41:09.119Z,19.12
2023-02-23T05:43:36.390Z,19.10
2023-02-23T05:46:06.409Z,19.08
2023-02-23T05:48:34.324Z,19.08
2023-02-23T05:51:01.758Z,19.07
2023-02-23T05:53:28.685Z,19.09
2023-02-23T05:55:55.613Z,19.17
2023-02-23T05:58:22.482Z,19.22
2023-02-23T06:00:49.324Z,19.25
2023-02-23T06:03:16.276Z,19.30
2023-02-23T06:05:43.425Z,19.37
2023-02-23T06:08:10.357Z,19.44
2023-02-23T06:10:37.182Z,19.50
2023-02-23T06:13:04.140Z,19.59
2023-02-23T06:15:31.647Z,19.64
2023-02-23T06:17:58.451Z,19.69
2023-02-23T06:20:25.282Z,19.74
2023-02-23T06:22:52.176Z,19.79
2023-02-23T06:25:19.064Z,19.84
2023-02-23T06:27:45.875Z,19.89
2023-02-23T06:30:12.959Z,19.95
2023-02-23T06:32:39.864Z,20.02
2023-02-23T06:35:07.664Z,20.07
2023-02-23T06:37:35.310Z,20.12
2023-02-23T06:40:02.541Z,20.18
2023-02-23T06:42:29.443Z,20.23
2023-02-23T06:44:56.247Z,20.30
2023-02-23T06:47:23.126Z,20.35
2023-02-23T06:49:50.014Z,20.41
2023-02-23T06:52:16.894Z,20.45
2023-02-23T06:54:43.914Z,20.50
2023-02-23T06:57:10.909Z,20.56
2023-02-23T06:59:37.908Z,20.62
2023-02-23T07:02:06.065Z,20.67
2023-02-23T07:04:33.559Z,20.72
2023-02-23T07:07:00.414Z,20.76
2023-02-23T07:09:29.148Z,20.81
2023-02-23T07:11:57.221Z,20.85
2023-02-23T07:14:26.856Z,20.89
2023-02-23T07:16:54.664Z,20.94
2023-02-23T07:19:21.561Z,20.96
2023-02-23T07:21:48.410Z,21.02
2023-02-23T07:24:15.387Z,21.05
2023-02-23T07:26:47.006Z,21.07
2023-02-23T07:29:13.896Z,21.10
2023-02-23T07:31:41.394Z,21.11
2023-02-23T07:34:09.390Z,20.73
2023-02-23T07:36:36.487Z,20.67
2023-02-23T07:39:05.103Z,20.71
2023-02-23T07:41:32.111Z,20.75
2023-02-23T07:43:59.752Z,20.76
2023-02-23T07:46:27.076Z,20.80
2023-02-23T07:48:54.038Z,20.81
2023-02-23T07:51:21.319Z,20.83
2023-02-23T07:53:49.431Z,20.82
2023-02-23T07:56:16.362Z,20.81
2023-02-23T07:58:44.277Z,20.80
2023-02-23T08:01:11.847Z,20.80
2023-02-23T08:03:39.695Z,20.77
2023-02-23T08:06:06.927Z,20.76
2023-02-23T08:08:35.693Z,20.74
2023-02-23T08:11:04.070Z,20.76
2023-02-23T08:13:32.228Z,20.78
2023-02-23T08:15:59.443Z,20.79
2023-02-23T08:18:26.532Z,20.80
2023-02-23T08:20:56.646Z,20.78
2023-02-23T08:23:23.587Z,20.78
2023-02-23T08:25:50.844Z,20.79
2023-02-23T08:28:17.896Z,20.84
2023-02-23T08:30:45.040Z,20.85
2023-02-23T08:33:12.092Z,20.81
2023-02-23T08:35:39.024Z,20.78
2023-02-23T08:38:06.220Z,20.80
2023-02-23T08:40:33.243Z,20.76
2023-02-23T08:43:00.156Z,20.77
2023-02-23T08:45:29.665Z,20.77
2023-02-23T08:47:57.197Z,20.81
2023-02-23T08:50:27.244Z,20.86
2023-02-23T08:52:54.540Z,20.88
2023-02-23T08:55:22.155Z,20.94
2023-02-23T08:57:49.089Z,20.97
2023-02-23T09:00:17.113Z,21.03
2023-02-23T09:02:45.653Z,21.05
2023-02-23T09:05:12.634Z,21.08
2023-02-23T09:07:40.569Z,21.10
2023-02-23T09:10:08.248Z,21.14
2023-02-23T09:12:35.268Z,21.16
2023-02-23T09:15:02.715Z,21.18
2023-02-23T09:17:29.828Z,21.18
2023-02-23T09:19:56.949Z,21.18
2023-02-23T09:22:23.959Z,21.19
2023-02-23T09:24:50.953Z,21.20
2023-02-23T09:27:17.948Z,21.22
2023-02-23T09:29:44.940Z,21.21
2023-02-23T09:32:12.285Z,21.17
2023-02-23T09:34:39.356Z,21.16
2023-02-23T09:37:06.501Z,21.14
2023-02-23T09:39:38.521Z,21.13
2023-02-23T09:42:09.004Z,21.12
2023-02-23T09:44:39.176Z,21.09
2023-02-23T09:47:07.448Z,21.09
2023-02-23T09:49:38.290Z,21.07
2023-02-23T09:52:10.223Z,21.06
2023-02-23T09:54:37.413Z,21.05
2023-02-23T09:57:07.172Z,21.05
2023-02-23T09:59:35.497Z,21.04
2023-02-23T10:02:02.834Z,21.02
2023-02-23T10:04:30.629Z,20.99
2023-02-23T10:07:00.929Z,21.02
2023-02-23T10:09:39.364Z,21.00
2023-02-23T10:12:10.524Z,21.01
2023-02-23T10:14:40.617Z,21.02
2023-02-23T10:17:12.134Z,21.02
2023-02-23T10:19:41.047Z,21.00
2023-02-23T10:22:09.623Z,20.96
2023-02-23T10:24:39.660Z,20.95
2023-02-23T10:27:10.562Z,20.95
2023-02-23T10:29:38.897Z,20.92
2023-02-23T10:32:08.374Z,20.89
2023-02-23T10:34:37.403Z,20.90
2023-02-23T10:37:06.396Z,20.91
2023-02-23T10:39:34.825Z,20.88
2023-02-23T10:42:06.312Z,20.87
2023-02-23T10:44:33.272Z,20.88
2023-02-23T10:47:03.110Z,20.86
2023-02-23T10:49:39.583Z,20.82
2023-02-23T10:52:09.642Z,20.80
2023-02-23T10:54:36.988Z,20.79
2023-02-23T10:57:05.562Z,20.75
2023-02-23T10:59:33.175Z,20.72
2023-02-23T11:02:03.197Z,20.68
2023-02-23T11:04:31.880Z,20.69
2023-02-23T11:07:02.202Z,20.64
2023-02-23T11:09:44.403Z,20.60
2023-02-23T11:12:22.339Z,20.54
2023-02-23T11:14:51.257Z,20.52
2023-02-23T11:17:21.314Z,20.49
2023-02-23T11:19:48.358Z,20.52
2023-02-23T11:22:22.678Z,20.49
2023-02-23T11:24:50.047Z,20.46
2023-02-23T11:27:21.464Z,20.45
2023-02-23T11:29:51.330Z,20.41
2023-02-23T11:32:21.293Z,20.39
2023-02-23T11:34:49.687Z,20.38
2023-02-23T11:37:18.223Z,20.34
2023-02-23T11:39:48.302Z,20.32
2023-02-23T11:42:19.662Z,20.28
2023-02-23T11:44:49.980Z,20.26
2023-02-23T11:47:19.454Z,20.27
2023-02-23T11:49:48.619Z,20.27
2023-02-23T11:52:18.746Z,20.29
2023-02-23T11:54:50.908Z,20.28
2023-02-23T11:57:22.239Z,20.27
2023-02-23T11:59:50.032Z,20.21
2023-02-23T12:02:21.119Z,20.20
2023-02-23T12:04:48.164Z,20.16
2023-02-23T12:07:18.201Z,20.13
2023-02-23T12:09:46.475Z,20.11
2023-02-23T12:12:17.124Z,20.06
2023-02-23T12:14:50.528Z,20.06
2023-02-23T12:17:20.743Z,20.03
2023-02-23T12:19:50.247Z,20.03
2023-02-23T12:22:20.533Z,20.01
2023-02-23T12:24:49.107Z,19.99
2023-02-23T12:27:18.722Z,19.95
2023-02-23T12:29:48.772Z,19.93
2023-02-23T12:32:19.188Z,19.89
2023-02-23T12:34:49.579Z,19.89
2023-02-23T12:37:19.669Z,19.86
2023-02-23T12:39:49.728Z,19.86
2023-02-23T12:42:23.534Z,19.82
2023-02-23T12:44:53.888Z,19.80
2023-02-23T12:47:25.087Z,19.77
2023-02-23T12:49:55.625Z,19.76
2023-02-23T12:52:26.132Z,19.74
2023-02-23T12:54:54.694Z,19.70
2023-02-23T12:57:24.999Z,19.73
2023-02-23T12:59:55.234Z,19.73
2023-02-23T13:02:27.759Z,19.70
2023-02-23T13:04:58.145Z,19.67
2023-02-23T13:07:28.280Z,19.66
2023-02-23T13:10:04.689Z,19.65
2023-02-23T13:12:36.536Z,19.63
2023-02-23T13:15:06.750Z,19.58
2023-02-23T13:17:36.590Z,19.59
2023-02-23T13:20:07.335Z,19.56
2023-02-23T13:22:34.741Z,19.57
2023-02-23T13:25:05.128Z,19.54
2023-02-23T13:27:35.418Z,19.52
2023-02-23T13:30:02.826Z,19.51
2023-02-23T13:32:32.499Z,19.50
2023-02-23T13:35:01.939Z,19.50
2023-02-23T13:37:35.265Z,19.46
2023-02-23T13:40:02.691Z,19.47
2023-02-23T13:42:31.610Z,19.45
2023-02-23T13:45:00.115Z,19.49
2023-02-23T13:47:34.489Z,19.59
2023-02-23T13:50:02.958Z,19.64
2023-02-23T13:52:33.584Z,19.68
2023-02-23T13:55:04.883Z,19.71
2023-02-23T13:57:32.645Z,19.76
2023-02-23T14:00:00.436Z,19.83
2023-02-23T14:02:31.148Z,19.88
2023-02-23T14:05:01.954Z,19.94
2023-02-23T14:07:31.265Z,20.01
2023-02-23T14:10:04.068Z,20.07
2023-02-23T14:12:34.288Z,20.14
2023-02-23T14:15:04.354Z,20.20
2023-02-23T14:17:34.471Z,20.26
2023-02-23T14:20:03.608Z,20.32
2023-02-23T14:22:31.944Z,20.37
2023-02-23T14:25:02.033Z,20.44
2023-02-23T14:27:41.093Z,20.48
2023-02-23T14:30:11.745Z,20.54
2023-02-23T14:32:40.261Z,20.60
2023-02-23T14:35:27.325Z,20.65
2023-02-23T14:37:56.855Z,20.70
2023-02-23T14:40:29.855Z,20.74
2023-02-23T14:42:58.465Z,20.78
2023-02-23T14:45:27.555Z,20.84
2023-02-23T14:47:57.093Z,20.89
2023-02-23T14:50:26.871Z,20.94
2023-02-23T14:52:54.781Z,20.97
2023-02-23T14:55:24.433Z,21.03
2023-02-23T14:57:52.880Z,21.07
2023-02-23T15:00:24.303Z,21.10
2023-02-23T15:02:54.603Z,21.14
2023-02-23T15:05:24.009Z,21.17
2023-02-23T15:07:52.352Z,21.19
2023-02-23T15:10:22.981Z,21.21
2023-02-23T15:12:50.976Z,21.22
2023-02-23T15:15:19.973Z,21.24
2023-02-23T15:17:48.768Z,21.24
2023-02-23T15:20:18.038Z,21.24
2023-02-23T15:22:47.764Z,21.24
2023-02-23T15:25:17.586Z,21.25
2023-02-23T15:27:45.787Z,21.24
2023-02-23T15:30:15.935Z,21.23
2023-02-23T15:32:43.348Z,21.27
2023-02-23T15:35:12.425Z,21.26
2023-02-23T15:40:12.200Z,21.28
2023-02-23T15:42:41.600Z,21.31
2023-02-23T15:45:11.586Z,21.31
2023-02-23T15:47:39.007Z,21.29
2023-02-23T15:50:08.219Z,21.28
2023-02-23T15:52:36.765Z,21.27
2023-02-23T15:55:08.321Z,21.23
2023-02-23T15:57:45.213Z,21.20
2023-02-23T16:00:18.091Z,21.21
2023-02-23T16:02:45.298Z,21.19
2023-02-23T16:05:15.491Z,21.19
2023-02-23T16:07:43.824Z,21.26
2023-02-23T16:10:14.047Z,21.22
2023-02-23T16:12:45.230Z,21.18
2023-02-23T16:15:15.560Z,21.21
2023-02-23T16:17:43.176Z,21.19
2023-02-23T16:20:11.868Z,21.19
2023-02-23T16:22:40.726Z,21.15
2023-02-23T16:25:13.359Z,21.13
2023-02-23T16:27:40.777Z,21.07
2023-02-23T16:30:10.931Z,21.09
2023-02-23T16:32:39.230Z,21.06
2023-02-23T16:35:09.589Z,21.05
2023-02-23T16:37:49.926Z,21.01
2023-02-23T16:40:17.108Z,20.98
2023-02-23T16:42:44.118Z,20.99
2023-02-23T16:45:15.192Z,20.91
2023-02-23T16:47:43.902Z,20.89
2023-02-23T16:50:20.973Z,20.82
2023-02-23T16:52:52.144Z,20.83
2023-02-23T16:58:18.646Z,20.74
2023-02-23T17:00:45.834Z,20.70
2023-02-23T17:03:17.056Z,20.64
2023-02-23T17:05:44.143Z,20.62
2023-02-23T17:08:12.325Z,20.58
2023-02-23T17:10:42.465Z,20.55
2023-02-23T17:13:15.773Z,20.53
2023-02-23T17:15:51.946Z,20.52
2023-02-23T17:18:19.883Z,20.49
2023-02-23T17:20:47.041Z,20.51
2023-02-23T17:23:15.731Z,20.44
2023-02-23T17:25:44.117Z,20.44
2023-02-23T17:28:13.068Z,20.39
2023-02-23T17:30:40.482Z,20.38
2023-02-23T17:33:07.697Z,20.36
2023-02-23T17:35:37.741Z,20.36
2023-02-23T17:38:05.198Z,20.37
2023-02-23T17:40:35.131Z,20.44
2023-02-23T17:43:05.131Z,20.42
2023-02-23T17:45:32.262Z,20.44
2023-02-23T17:47:59.464Z,20.46
2023-02-23T17:50:27.373Z,20.50
2023-02-23T17:52:54.608Z,20.50
2023-02-23T17:55:22.084Z,20.50
2023-02-23T17:57:49.480Z,20.50
2023-02-23T18:00:18.649Z,20.50
2023-02-23T18:02:46.100Z,20.51
2023-02-23T18:05:13.908Z,20.52
2023-02-23T18:07:41.287Z,20.52
2023-02-23T18:10:08.982Z,20.52
2023-02-23T18:12:37.607Z,20.50
2023-02-23T18:15:05.477Z,20.51
2023-02-23T18:17:34.115Z,20.49
2023-02-23T18:20:02.358Z,20.47
2023-02-23T18:22:29.734Z,20.46
2023-02-23T18:24:58.242Z,20.45
2023-02-23T18:27:26.595Z,20.42
2023-02-23T18:29:53.857Z,20.40
2023-02-23T18:32:21.411Z,20.41
2023-02-23T18:34:48.634Z,20.38
2023-02-23T18:37:25.633Z,20.37
2023-02-23T18:39:54.884Z,20.39
2023-02-23T18:42:22.291Z,20.35
2023-02-23T18:44:49.532Z,20.36
2023-02-23T18:47:16.574Z,20.34
2023-02-23T18:49:44.107Z,20.29
2023-02-23T18:52:11.373Z,20.27
2023-02-23T18:54:40.794Z,20.28
2023-02-23T18:57:07.993Z,20.23
2023-02-23T18:59:34.992Z,20.19
2023-02-23T19:02:02.072Z,20.16
2023-02-23T19:04:29.117Z,20.15
2023-02-23T19:06:56.121Z,20.11
2023-02-23T19:09:23.290Z,20.06
2023-02-23T19:11:51.494Z,20.09
2023-02-23T19:14:20.885Z,20.04
2023-02-23T19:16:49.657Z,20.03
2023-02-23T19:19:17.109Z,20.02
2023-02-23T19:21:44.162Z,20.03
2023-02-23T19:24:11.279Z,20.04
2023-02-23T19:26:39.128Z,20.10
2023-02-23T19:29:06.883Z,20.14
2023-02-23T19:31:34.604Z,20.14
2023-02-23T19:34:06.380Z,20.17
2023-02-23T19:36:35.792Z,20.21
2023-02-23T19:39:11.393Z,20.26
2023-02-23T19:41:39.975Z,20.33
2023-02-23T19:44:07.391Z,20.37
2023-02-23T19:46:35.475Z,20.44
2023-02-23T19:49:02.890Z,20.49
2023-02-23T19:51:30.277Z,20.53
2023-02-23T19:53:57.866Z,20.56
2023-02-23T19:56:25.469Z,20.62
2023-02-23T19:58:52.951Z,20.64
2023-02-23T20:01:21.697Z,20.69
2023-02-23T20:03:55.635Z,20.72
2023-02-23T20:06:24.562Z,20.76
2023-02-23T20:08:53.007Z,20.79
2023-02-23T20:11:20.503Z,20.84
2023-02-23T20:13:47.778Z,20.88
2023-02-23T20:16:15.765Z,20.93
2023-02-23T20:18:43.611Z,20.97
2023-02-23T20:21:14.094Z,21.01
2023-02-23T20:23:41.998Z,21.06
2023-02-23T20:26:10.699Z,21.09
2023-02-23T20:28:38.375Z,21.13
2023-02-23T20:31:05.834Z,21.18
2023-02-23T20:33:33.090Z,21.21
2023-02-23T20:36:00.711Z,21.26
2023-02-23T20:38:29.017Z,21.29
2023-02-23T20:40:59.296Z,21.34
2023-02-23T20:43:28.060Z,21.37
2023-02-23T20:45:55.515Z,21.41
2023-02-23T20:48:23.309Z,21.45
2023-02-23T20:50:54.133Z,21.48
2023-02-23T20:53:22.389Z,21.52
2023-02-23T20:55:49.748Z,21.55
2023-02-23T20:58:18.284Z,21.58
2023-02-23T21:00:45.465Z,21.60
2023-02-23T21:03:12.564Z,21.62
2023-02-23T21:05:42.651Z,21.63
2023-02-23T21:08:10.095Z,21.63
2023-02-23T21:10:38.423Z,21.65
2023-02-23T21:13:06.552Z,21.66
2023-02-23T21:15:35.361Z,21.65
2023-02-23T21:18:02.523Z,21.65
2023-02-23T21:20:29.925Z,21.64
2023-02-23T21:22:56.918Z,21.65
2023-02-23T21:25:25.115Z,21.66
2023-02-23T21:27:52.300Z,21.67
2023-02-23T21:30:21.116Z,21.70
2023-02-23T21:32:49.360Z,21.74
2023-02-23T21:35:16.868Z,21.77
2023-02-23T21:37:44.675Z,21.79
2023-02-23T21:40:13.187Z,21.80
2023-02-23T21:42:42.442Z,21.82
2023-02-23T21:45:11.487Z,21.85
2023-02-23T21:47:39.842Z,21.87
2023-02-23T21:50:10.896Z,21.89
2023-02-23T21:52:38.113Z,21.91
2023-02-23T21:55:07.878Z,21.92
2023-02-23T21:57:40.229Z,21.91
2023-02-23T22:00:08.599Z,21.93
2023-02-23T22:02:38.779Z,21.89
2023-02-23T22:05:06.334Z,21.93
2023-02-23T22:07:34.213Z,21.94
2023-02-23T22:10:01.484Z,21.98
2023-02-23T22:12:28.489Z,22.01
2023-02-23T22:14:56.092Z,22.02
2023-02-23T22:17:23.165Z,22.05
2023-02-23T22:19:51.178Z,22.06
2023-02-23T22:22:20.376Z,22.09
2023-02-23T22:24:49.246Z,22.10
2023-02-23T22:27:16.525Z,22.13
2023-02-23T22:29:43.496Z,22.13
2023-02-23T22:32:10.763Z,22.15
2023-02-23T22:34:38.326Z,22.20
2023-02-23T22:37:05.370Z,22.21
2023-02-23T22:39:33.733Z,22.21
2023-02-23T22:42:09.452Z,22.22
2023-02-23T22:44:37.644Z,22.22
2023-02-23T22:47:04.765Z,22.21
2023-02-23T22:49:31.985Z,22.20
2023-02-23T22:51:58.690Z,22.20
2023-02-23T22:54:26.749Z,22.18
2023-02-23T22:56:55.823Z,22.14
2023-02-23T22:59:22.607Z,22.12
2023-02-23T23:01:50.720Z,22.11
2023-02-23T23:04:17.567Z,22.10
2023-02-23T23:06:44.385Z,22.06
2023-02-23T23:09:12.443Z,22.06
2023-02-23T23:11:41.933Z,22.02
2023-02-23T23:14:10.473Z,22.01
2023-02-23T23:16:48.365Z,22.02
2023-02-23T23:19:17.125Z,21.99
2023-02-23T23:21:45.288Z,21.96
2023-02-23T23:24:13.854Z,21.93
2023-02-23T23:26:41.098Z,21.95
2023-02-23T23:29:10.343Z,21.96
2023-02-23T23:31:38.374Z,22.01
2023-02-23T23:34:09.575Z,22.04
2023-02-23T23:36:38.184Z,22.09
2023-02-23T23:39:06.510Z,22.11
2023-02-23T23:41:35.623Z,22.15
2023-02-23T23:44:05.428Z,22.17
2023-02-23T23:46:34.309Z,22.22
2023-02-23T23:49:02.724Z,22.25
2023-02-23T23:51:31.524Z,22.25
2023-02-23T23:53:59.443Z,22.27
2023-02-23T23:56:26.747Z,22.28
2023-02-23T23:58:56.173Z,22.29
